»·PEaware :: N32314 KSJC-KMRY

N32314 :: KSJC-KMRY

FLIGHT INFORMATION

Flight Status: Arrived
Operator: Privately registered:
United States
More flights under this callsign
Pilot: John O. (31453)
Aircraft: CESSNA 172 SKYHAWK
(C172)
More flights by this aircraft type
Origin: KSJC Mineta San Jose Intl
United States
Destination: KMRY Monterey Peninsula
United States
More flights between these airports :: More routes between these airports
Route: +
File this flight plan on PilotEdge
Remarks:
Altitude:
(Current/Filed)
3,500ft
Speed:
(Current/Filed)
0kts
Departed: 05-Oct-20 05:19 PM
Arrived: 05-Oct-20 06:00 PM
Distance/Time
Traveled:
47nm/0:40
Distance/Time
To Go:
Arrived

Flight Plot

Page will automatically refresh every two minutes.

Flight plan parsing failed; only flown route is shown


Map Options




Map Legend


Flown Route
Filed Route
Departure Airport
Arrival Airport
Navaid (VOR, NDB)
Fix

Horizontal Profiles

Position Reports

Time Latitude Longitude Heading Altitude Ground
Speed
05-Oct-20 17:11 37.354106 -121.923308 89 62ft 0kts
05-Oct-20 17:12 37.354106 -121.923308 89 62ft 0kts
05-Oct-20 17:13 37.354106 -121.923308 89 62ft 0kts
05-Oct-20 17:14 37.354426 -121.922936 87 63ft 10kts
05-Oct-20 17:15 37.352187 -121.919732 56 63ft 7kts
05-Oct-20 17:16 37.352211 -121.919696 46 64ft 0kts
05-Oct-20 17:17 37.352211 -121.919696 46 64ft 0kts
05-Oct-20 17:18 37.356020 -121.922667 315 71ft 69kts
05-Oct-20 17:19 37.374483 -121.942805 317 570ft 98kts
05-Oct-20 17:20 37.395876 -121.964385 324 1238ft 97kts
05-Oct-20 17:21 37.418354 -121.986041 319 1745ft 104kts
05-Oct-20 17:22 37.440844 -122.008790 320 2234ft 103kts
05-Oct-20 17:23 37.462857 -122.031944 276 2629ft 102kts
05-Oct-20 17:24 37.437593 -122.029895 153 2888ft 107kts
05-Oct-20 17:25 37.409396 -122.016198 168 3127ft 109kts
05-Oct-20 17:26 37.382213 -121.999514 151 3358ft 109kts
05-Oct-20 17:27 37.355603 -121.980353 151 3438ft 110kts
05-Oct-20 17:28 37.329456 -121.960893 163 3443ft 109kts
05-Oct-20 17:29 37.299576 -121.961152 195 3446ft 108kts
05-Oct-20 17:30 37.270392 -121.970168 192 3446ft 108kts
05-Oct-20 17:31 37.240499 -121.975644 190 3447ft 108kts
05-Oct-20 17:32 37.210864 -121.982199 193 3442ft 108kts
05-Oct-20 17:33 37.180798 -121.982985 173 3480ft 108kts
05-Oct-20 17:34 37.150844 -121.978043 164 3466ft 109kts
05-Oct-20 17:35 37.120948 -121.972322 179 3445ft 109kts
05-Oct-20 17:36 37.091276 -121.965569 173 3441ft 108kts
05-Oct-20 17:37 37.061173 -121.965130 165 3432ft 109kts
05-Oct-20 17:38 37.031280 -121.960889 172 3439ft 108kts
05-Oct-20 17:39 37.001564 -121.953265 165 3452ft 108kts
05-Oct-20 17:40 36.972199 -121.944169 166 3479ft 108kts
05-Oct-20 17:41 36.943234 -121.933016 152 3478ft 109kts
05-Oct-20 17:42 36.926358 -121.918788 146 3478ft 109kts
05-Oct-20 17:43 36.909135 -121.900208 137 3537ft 109kts
05-Oct-20 17:44 36.886958 -121.874018 138 3612ft 109kts
05-Oct-20 17:45 36.863577 -121.849361 143 3415ft 107kts
05-Oct-20 17:46 36.838985 -121.827409 143 3360ft 108kts
05-Oct-20 17:47 36.816813 -121.801834 139 3413ft 108kts
05-Oct-20 17:48 36.793219 -121.778638 151 3465ft 108kts
05-Oct-20 17:49 36.769235 -121.768713 170 3502ft 107kts
05-Oct-20 17:50 36.744438 -121.764230 177 3214ft 106kts
05-Oct-20 17:51 36.715121 -121.770126 194 2505ft 106kts
05-Oct-20 17:52 36.685767 -121.778895 200 1763ft 115kts
05-Oct-20 17:53 36.659111 -121.792444 201 1384ft 103kts
05-Oct-20 17:54 36.632719 -121.804411 212 1171ft 99kts
05-Oct-20 17:55 36.607608 -121.816656 207 1161ft 92kts
05-Oct-20 17:56 36.600727 -121.839532 307 1098ft 92kts
05-Oct-20 17:57 36.609320 -121.865312 242 967ft 78kts
05-Oct-20 17:58 36.593196 -121.862373 112 339ft 70kts
05-Oct-20 17:59 36.587792 -121.847549 186 200ft 14kts
05-Oct-20 18:00 36.587483 -121.847848 270 199ft 9kts
05-Oct-20 18:01 36.587284 -121.849436 198 193ft 0kts
05-Oct-20 18:02 36.587284 -121.849436 198 193ft 0kts
05-Oct-20 18:03 36.587284 -121.849436 198 193ft 0kts
05-Oct-20 18:04 36.587284 -121.849436 198 193ft 0kts
05-Oct-20 18:05 36.587284 -121.849436 198 193ft 0kts
05-Oct-20 18:06 36.587284 -121.849436 198 193ft 0kts
05-Oct-20 18:07 36.587284 -121.849436 198 193ft 0kts
05-Oct-20 18:08 36.587284 -121.849436 198 193ft 0kts
05-Oct-20 18:09 36.587284 -121.849436 198 193ft 0kts
05-Oct-20 18:10 36.587284 -121.849436 198 193ft 0kts
05-Oct-20 18:11 36.587284 -121.849436 198 193ft 0kts
05-Oct-20 18:12 36.587284 -121.849436 198 193ft 0kts
05-Oct-20 18:13 36.587284 -121.849436 198 193ft 0kts

Navigation Log

Ident Type
Flight plan parsing failed, navigation log unavailable